TOURFACTS.DK  
Stats and Facts from Tour de France.

Tour de France 2019 starts in 320 days
  Riders   Stages   Teams   Summits   Yearly  


 
Search by year

After 2018 - Stage 21:
 15000 starters.
  5165 different riders.
  638 teams.
  2253 stages.
  456 restdays.
  442940.60 km.
  5684 abandonnees.


Top 3
GC
Geraint Thomas83:17:13
Tom Dumoulin83:19:04
Christopher Froome83:19:37
Climb
Julian Alaphilippe170 pt.
Warren Barguil91 pt.
Rafal Majka76 pt.
Sprint
Peter Sagan477 pt.
Alexander Kristoff246 pt.
Arnaud Démare203 pt.
Youth
Pierre-Roger Latou..83:39:26
Egan Bernal83:45:05
Guillaume Martin84:01:31
Facts from Tour de France 2017
  |   Stages.  |   Stage winners.  |   Days in yellow  |   Average speed.  |   Route.  |   Teams.  |   All riders.  |   Rookies.  |  

  |   Withdrawls.  |   GC.  |   Polka  |   Green  |   White  |   Summits. (In tour)  |   Miscellaneous.  |  

Stage 13 on 14 - 07 - 2017
         Owning:    Fabio Aru      Warren Barguil      Marcel Kittel      Simon Yates  

Pick a stage:  1 2 3 4 5 6 7 8 9 10 11 12 13 14 15 16 17 18 19 20 21
  Saint-GironsFoix | Dist: 101.00 km.
Cat: 1Col de LatrapeITAAlessandro De Marchi10 points 
Cat: 1Col d'Agnes - MassatESPAlberto Contador10 points 
Cat: 1Mur de PéguèreFRAWarren Barguil10 points 

Average speed for all riders in stage:  35,642 km./hr.
    Place:Name:Team:Time:Km/h:
1
FRAWarren BarguilDEUTeam Sunweb02:36:29  +  00:00:00=38,726 
2
COLNairo QuintanaESPMovistar Team02:36:29  +  00:00:00=38,726 
3
ESPAlberto ContadorUSATrek - Segafredo02:36:29  +  00:00:00=38,726 
44 ESPMikel Landa MeanaGBRSky Procycling02:36:31  +  00:00:02=38,718 
55 ENGSimon YatesAUSOrica - Scott02:38:08  +  00:01:39=38,322 
66 ENGDaniel MartinBELQuick-Step Floors02:38:08  +  00:01:39=38,322 
77 POLMichal KwiatkowskiGBRSky Procycling02:38:17  +  00:01:48=38,286 
88 KENChristopher FroomeGBRSky Procycling02:38:17  +  00:01:48=38,286 
99 ITAFabio AruKAZAstana Pro Team02:38:17  +  00:01:48=38,286 
1010 COLRigoberto UránUSACannondale-Drapac Pro Cycling ..02:38:17  +  00:01:48=38,286 
1111 FRARomain BardetFRAAg2r La Mondiale02:38:17  +  00:01:48=38,286 
1212 RSALouis MeintjesUAEUAE Team Emirates02:38:17  +  00:01:48=38,286 
1313 COLCarlos Alberto BetancurESPMovistar Team02:38:17  +  00:01:48=38,286 
1414 ITADiego UlissiUAEUAE Team Emirates02:38:17  +  00:01:48=38,286 
1515 FRAPierre-Roger LatourFRAAg2r La Mondiale02:38:17  +  00:01:48=38,286 
1616 BELSerge PauwelsZAFDimension Data02:38:17  +  00:01:48=38,286 
1717 FRAAlexis VuillermozFRAAg2r La Mondiale02:38:17  +  00:01:48=38,286 
1818 ITADamiano CarusoUSABMC Racing Team02:38:17  +  00:01:48=38,286 
1919 FRAGuillaume MartinBELWanty – Groupe Gobert02:38:17  +  00:01:48=38,286 
2020 GEREmanuel BuchmannDEUBora–Hansgrohe02:38:17  +  00:01:48=38,286 
2121 ESPMikel NieveGBRSky Procycling02:38:17  +  00:01:48=38,286 
2222 NZLGeorge BennettNLDTeam Lotto NL - Jumbo02:38:17  +  00:01:48=38,286 
2323 FRAPierre-Luc PérichonFRAFortuneo - Vital Concept02:42:25  +  00:05:56=37,311 
2424 FRATony GallopinBELLotto Soudal02:42:25  +  00:05:56=37,311 
2525 ESPDaniel NavarroFRACofidis – Solutions Crédits02:42:25  +  00:05:56=37,311 
2626 ESPJonathan CastroviejoESPMovistar Team02:42:25  +  00:05:56=37,311 
2727 FRARomain SicardFRADirect Energie02:42:25  +  00:05:56=37,311 
2828 BELGreg Van AvermaetUSABMC Racing Team02:42:25  +  00:05:56=37,311 
2929 SLOPrimoz RoglicNLDTeam Lotto NL - Jumbo02:42:25  +  00:05:56=37,311 
3030 CZERoman KreuzigerAUSOrica - Scott02:42:25  +  00:05:56=37,311 
3131 FRAMaxime BouetFRAFortuneo - Vital Concept02:42:25  +  00:05:56=37,311 
3232 FRABrice FeilluFRAFortuneo - Vital Concept02:42:25  +  00:05:56=37,311 
3333 KAZAndrey ZeitsKAZAstana Pro Team02:42:25  +  00:05:56=37,311 
3434 FRARomain HardyFRAFortuneo - Vital Concept02:42:25  +  00:05:56=37,311 
3535 BELThomas DegandBELWanty – Groupe Gobert02:42:25  +  00:05:56=37,311 
3636 FRAAmaël MoinardUSABMC Racing Team02:42:25  +  00:05:56=37,311 
3737 COLDarwin AtapumaUAEUAE Team Emirates02:42:25  +  00:05:56=37,311 
3838 HRVKristijan DurasekUAEUAE Team Emirates02:42:25  +  00:05:56=37,311 
3939 NEDBauke MollemaUSATrek - Segafredo02:42:25  +  00:05:56=37,311 
4040 LUXBen GastauerFRAAg2r La Mondiale02:42:25  +  00:05:56=37,311 
4141 FRASylvain ChavanelFRADirect Energie02:44:28  +  00:07:59=36,846 
4242 FRACyril GautierFRAAg2r La Mondiale02:50:49  +  00:14:20=35,477 
4343 BELFrederik BackaertBELWanty – Groupe Gobert02:50:49  +  00:14:20=35,477 
4444 NEDMarco MinnaardBELWanty – Groupe Gobert02:50:49  +  00:14:20=35,477 
4545 FRAAxel DomontFRAAg2r La Mondiale02:50:49  +  00:14:20=35,477 
4646 BELThomas De GendtBELLotto Soudal02:50:49  +  00:14:20=35,477 
4747 BELOliver NaesenFRAAg2r La Mondiale02:50:49  +  00:14:20=35,477 
4848 ITAAlberto BettiolUSACannondale-Drapac Pro Cycling ..02:50:49  +  00:14:20=35,477 
4949 ESPJavier Moreno BazánBHRBahrain-Merida02:50:49  +  00:14:20=35,477 
5050 GERGianluca BrambillaBELQuick-Step Floors02:50:49  +  00:14:20=35,477 
5151 BELJan BakelantsFRAAg2r La Mondiale02:50:49  +  00:14:20=35,477 
5252 GERSimon GeschkeDEUTeam Sunweb02:50:49  +  00:14:20=35,477 
5353 BELTiesj BenootBELLotto Soudal02:50:49  +  00:14:20=35,477 
5454 COLSergio Luis HenaoGBRSky Procycling02:50:49  +  00:14:20=35,477 
5555 CZEOndrej CinkBHRBahrain-Merida02:50:49  +  00:14:20=35,477 
5656 BLRVasil KiryienkaGBRSky Procycling02:50:49  +  00:14:20=35,477 
5757 FRANicolas RocheUSABMC Racing Team02:50:49  +  00:14:20=35,477 
5858 ESPHaimar ZubeldiaUSATrek - Segafredo02:50:49  +  00:14:20=35,477 
5959 FRALilian CalmejaneFRADirect Energie02:50:49  +  00:14:20=35,477 
6060 HRVRobert KiserlovskiCHETeam Katusha - Alpecin02:50:49  +  00:14:20=35,477 
6161 COLJohan Esteban ChavesAUSOrica - Scott02:50:49  +  00:14:20=35,477 
6262 SLOJanez BrajkovicBHRBahrain-Merida02:50:49  +  00:14:20=35,477 
6363 ITAAlessandro De MarchiUSABMC Racing Team02:50:49  +  00:14:20=35,477 
6464 NEDMaurits LammertinkCHETeam Katusha - Alpecin02:52:10  +  00:15:41=35,198 
6565 FRAAdrien PetitFRADirect Energie02:52:10  +  00:15:41=35,198 
6666 BELGuillaume Van KeirsbulckBELWanty – Groupe Gobert02:52:10  +  00:15:41=35,198 
6767 ETHTsgabu Gebremaryan GrmayBHRBahrain-Merida02:52:10  +  00:15:41=35,198 
6868 AUSAdam HansenBELLotto Soudal02:52:10  +  00:15:41=35,198 
6969 DENMichael ValgrenKAZAstana Pro Team02:52:10  +  00:15:41=35,198 
7070 NEDRoy CurversDEUTeam Sunweb02:52:10  +  00:15:41=35,198 
7171 GERJasha SütterlinESPMovistar Team02:52:10  +  00:15:41=35,198 
7272 NEDMike TeunissenDEUTeam Sunweb02:52:10  +  00:15:41=35,198 
7373 SUIMichael SchärUSABMC Racing Team02:52:10  +  00:15:41=35,198 
7474 ENGScott ThwaitesZAFDimension Data02:52:10  +  00:15:41=35,198 
7575 AUTMarco HallerCHETeam Katusha - Alpecin02:52:10  +  00:15:41=35,198 
7676 GERNils PolittCHETeam Katusha - Alpecin02:52:10  +  00:15:41=35,198 
7777 GERNikias ArndtDEUTeam Sunweb02:52:10  +  00:15:41=35,198 
7878 FRARudy MolardFRAFDJ02:52:10  +  00:15:41=35,198 
7979 FRAYoann OffredoBELWanty – Groupe Gobert02:52:10  +  00:15:41=35,198 
8080 FRANicolas EdetFRACofidis – Solutions Crédits02:52:10  +  00:15:41=35,198 
8181 RSADaryl ImpeyAUSOrica - Scott02:52:10  +  00:15:41=35,198 
8282 GERTony MartinCHETeam Katusha - Alpecin02:52:10  +  00:15:41=35,198 
8383 BELPieter VanspeybrouckBELWanty – Groupe Gobert02:52:10  +  00:15:41=35,198 
8484 AUSJay McCarthyDEUBora–Hansgrohe02:52:10  +  00:15:41=35,198 
8585 NZLPaddy BevinUSACannondale-Drapac Pro Cycling ..02:52:10  +  00:15:41=35,198 
8686 NEDLaurens ten DamDEUTeam Sunweb02:52:10  +  00:15:41=35,198 
8787 NEDDylan Van BaarleUSACannondale-Drapac Pro Cycling ..02:52:10  +  00:15:41=35,198 
8888 GERChristian KneesGBRSky Procycling02:52:10  +  00:15:41=35,198 
8989 USAAndrew TalanskyUSACannondale-Drapac Pro Cycling ..02:52:10  +  00:15:41=35,198 
9090 SUIReto HollensteinCHETeam Katusha - Alpecin02:52:10  +  00:15:41=35,198 
9191 GERPaul MartensNLDTeam Lotto NL - Jumbo02:52:10  +  00:15:41=35,198 
9292 ESPImanol ErvitiESPMovistar Team02:52:10  +  00:15:41=35,198 
9393 FRAElie GesbertFRAFortuneo - Vital Concept02:52:10  +  00:15:41=35,198 
9494 FRAPerrig QuemeneurFRADirect Energie02:52:10  +  00:15:41=35,198 
9595 FRAYohann GèneFRADirect Energie02:52:10  +  00:15:41=35,198 
9696 CRCAndrey AmadorESPMovistar Team02:52:10  +  00:15:41=35,198 
9797 NZLDion SmithBELWanty – Groupe Gobert02:52:10  +  00:15:41=35,198 
9898 SUIMathias FrankFRAAg2r La Mondiale02:52:10  +  00:15:41=35,198 
9999 FRAAngelo TulikFRADirect Energie02:52:10  +  00:15:41=35,198 
100100 FRAThomas VoecklerFRADirect Energie02:52:10  +  00:15:41=35,198 
101101 FRAThibaut PinotFRAFDJ02:52:10  +  00:15:41=35,198 
102102 JPNYukiya ArashiroBHRBahrain-Merida02:52:10  +  00:15:41=35,198 
103103 AUSDamien HowsonAUSOrica - Scott02:52:10  +  00:15:41=35,198 
104104 AUSSimon ClarkeUSACannondale-Drapac Pro Cycling ..02:52:10  +  00:15:41=35,198 
105105 ESPLuis Angel MateFRACofidis – Solutions Crédits02:52:10  +  00:15:41=35,198 
106106 ITAMarco MarcatoUAEUAE Team Emirates02:52:10  +  00:15:41=35,198 
107107 ARGEduardo SepulvedaFRAFortuneo - Vital Concept02:52:10  +  00:15:41=35,198 
108108 SLOGrega BoleBHRBahrain-Merida02:52:10  +  00:15:41=35,198 
109109 PORTiago PintoCHETeam Katusha - Alpecin02:52:10  +  00:15:41=35,198 
110110 NEDKoen De KortUSATrek - Segafredo02:52:10  +  00:15:41=35,198 
111111 COLJarlinson Pantano GomezUSATrek - Segafredo02:52:10  +  00:15:41=35,198 
112112 NORAlexander KristoffCHETeam Katusha - Alpecin02:52:10  +  00:15:41=35,198 
113113 FRAChristophe LaporteFRACofidis – Solutions Crédits02:52:10  +  00:15:41=35,198 
114114 SUIStefan KüngUSABMC Racing Team02:52:10  +  00:15:41=35,198 
115115 ESPJesus HerradaESPMovistar Team02:52:10  +  00:15:41=35,198 
116116 BELJulien VermoteBELQuick-Step Floors02:52:10  +  00:15:41=35,198 
117117 KAZDmitriy GruzdevKAZAstana Pro Team02:52:10  +  00:15:41=35,198 
118118 USANathan BrownUSACannondale-Drapac Pro Cycling ..02:52:10  +  00:15:41=35,198 
119119 BELPhilippe GilbertBELQuick-Step Floors02:52:10  +  00:15:41=35,198 
120120 SUIDanilo WyssUSABMC Racing Team02:52:10  +  00:15:41=35,198 
121121 ITAAndrea PasqualonBELWanty – Groupe Gobert02:52:10  +  00:15:41=35,198 
122122 BELJens KeukeleireAUSOrica - Scott02:52:10  +  00:15:41=35,198 
123123 GERRick ZabelCHETeam Katusha - Alpecin02:52:10  +  00:15:41=35,198 
124124 NEDTimo RoosenNLDTeam Lotto NL - Jumbo02:52:10  +  00:15:41=35,198 
125125 SUIMichael AlbasiniAUSOrica - Scott02:52:10  +  00:15:41=35,198 
126126 CZEZdenek StybarBELQuick-Step Floors02:52:10  +  00:15:41=35,198 
127127 NOREdvald Boasson HagenZAFDimension Data02:52:10  +  00:15:41=35,198 
128128 ITASonny ColbrelliBHRBahrain-Merida02:52:10  +  00:15:41=35,198 
129129 ITADaniele BennatiESPMovistar Team02:52:10  +  00:15:41=35,198 
130130 POLMaciej BodnarDEUBora–Hansgrohe02:52:10  +  00:15:41=35,198 
131131 ENGBen SwiftUAEUAE Team Emirates02:52:10  +  00:15:41=35,198 
132132 FRAJulien SimonFRACofidis – Solutions Crédits02:52:10  +  00:15:41=35,198 
133133 SLOBorut BozicBHRBahrain-Merida02:52:10  +  00:15:41=35,198 
134134 ITAMatteo BonoUAEUAE Team Emirates02:52:10  +  00:15:41=35,198 
135135 AUTMichael GoglUSATrek - Segafredo02:52:10  +  00:15:41=35,198 
136136 KAZBakhtiyar KozhatayevKAZAstana Pro Team02:52:10  +  00:15:41=35,198 
137137 NORVegard Stake LaengenUAEUAE Team Emirates02:52:10  +  00:15:41=35,198 
138138 AUSMichael MatthewsDEUTeam Sunweb02:52:10  +  00:15:41=35,198 
139139 ESPMarkel IrizarUSATrek - Segafredo02:52:10  +  00:15:41=35,198 
140140 NEDAlbert TimmerDEUTeam Sunweb02:52:25  +  00:15:56=35,147 
141141 BELDimitri ClaeysFRACofidis – Solutions Crédits02:52:25  +  00:15:56=35,147 
142142 FRALaurent PichonFRAFortuneo - Vital Concept02:52:25  +  00:15:56=35,147 
143143 FRAThomas BoudatFRADirect Energie02:52:25  +  00:15:56=35,147 
144144 FRAFlorian VachonFRAFortuneo - Vital Concept02:52:25  +  00:15:56=35,147 
145145 RSAJaco VenterZAFDimension Data02:55:53  +  00:19:24=34,455 
146146 ITADavide CimolaiFRAFDJ02:55:53  +  00:19:24=34,455 
147147 FRANacer BouhanniFRACofidis – Solutions Crédits02:55:53  +  00:19:24=34,455 
148148 WALLuke RoweGBRSky Procycling02:55:53  +  00:19:24=34,455 
149149 NEDTom LeezerNLDTeam Lotto NL - Jumbo02:55:53  +  00:19:24=34,455 
150150 AUSMathew HaymanAUSOrica - Scott02:55:53  +  00:19:24=34,455 
151151 FRAOlivier Le GacFRAFDJ02:52:10  +  00:15:41=35,198 
152152 DDRRüdiger SeligDEUBora–Hansgrohe02:52:10  +  00:15:41=35,198 
153153 GERJohn DegenkolbUSATrek - Segafredo02:52:10  +  00:15:41=35,198 
154154 FRACyril LemoineFRACofidis – Solutions Crédits02:52:10  +  00:15:41=35,198 
155155 RSAReinardt Janse Van RensburgZAFDimension Data02:52:10  +  00:15:41=35,198 
156156 KAZAlexey LutsenkoKAZAstana Pro Team02:55:53  +  00:19:24=34,455 
157157 BELTim WellensBELLotto Soudal02:57:34  +  00:21:05=34,128 
158158 NEDRamon SinkeldamDEUTeam Sunweb02:57:34  +  00:21:05=34,128 
159159 POLPawel PoljanskiDEUBora–Hansgrohe02:57:34  +  00:21:05=34,128 
160160 GERAndré GreipelBELLotto Soudal02:57:34  +  00:21:05=34,128 
161161 ITAFabio SabatiniBELQuick-Step Floors02:57:34  +  00:21:05=34,128 
162162 FRAPierre RollandUSACannondale-Drapac Pro Cycling ..02:57:34  +  00:21:05=34,128 
163163 GERMarcel SiebergBELLotto Soudal02:57:34  +  00:21:05=34,128 
164164 DENLars BakBELLotto Soudal02:57:34  +  00:21:05=34,128 
165165 GERMarcus BurghardtDEUBora–Hansgrohe02:57:34  +  00:21:05=34,128 
166166 AUTBernhard EiselZAFDimension Data02:57:34  +  00:21:05=34,128 
167167 GERMarcel KittelBELQuick-Step Floors02:57:34  +  00:21:05=34,128 
168168 GERRobert WagnerNLDTeam Lotto NL - Jumbo02:57:34  +  00:21:05=34,128 
169169 ENGStephen CummingsZAFDimension Data02:57:34  +  00:21:05=34,128 
170170 NZLJack BauerBELQuick-Step Floors02:57:34  +  00:21:05=34,128 
171171 USATaylor PhinneyUSACannondale-Drapac Pro Cycling ..02:57:34  +  00:21:05=34,128 
172172 BELJürgen RoelandtsBELLotto Soudal02:57:34  +  00:21:05=34,128 
173173 ENGDaniel McLayFRAFortuneo - Vital Concept02:57:34  +  00:21:05=34,128 
174174 UKRAndriy GrivkoKAZAstana Pro Team02:57:34  +  00:21:05=34,128 
175175 FRAFlorian SénéchalFRACofidis – Solutions Crédits02:57:34  +  00:21:05=34,128 
176176 NEDDylan GroenewegenNLDTeam Lotto NL - Jumbo02:57:34  +  00:21:05=34,128 
177177 ITAFabio FellineUSATrek - Segafredo03:03:39  +  00:27:10=32,998 

Withdrawls: 2
 
Rider
Team
Reason
53  SUIJakob FuglsangKAZAstana Pro TeamDid not finish
79  FRAArthur VichotFRAFDJDid not finish
Todays birthdays.

1878  Jean Novo
1883  Jules Chabas
1890  Ange Aubry
1893  Roger Marye
1913  Paul Maye
1914  Lucien Vlaemynck
1915  Alphonse Antoine
1932  Rolf Graf
1953  Julio Rubiano
1959  Jos Haex
1959  Gerard Veldscholten
1963  Pablo Moreno
1964  Juan Castillo
1977  Iban Mayo
1994  Fernando Gaviria